createdAt,value
2022-09-12T00:00:08.145Z,101149.13
2022-09-12T00:02:39.602Z,101145.97
2022-09-12T00:05:11.371Z,101136.78
2022-09-12T00:07:42.832Z,101136.97
2022-09-12T00:10:14.606Z,101136.03
2022-09-12T00:12:46.071Z,101124.97
2022-09-12T00:15:17.872Z,101133.94
2022-09-12T00:17:49.329Z,101125.78
2022-09-12T00:20:21.148Z,101124.03
2022-09-12T00:22:52.617Z,101121.25
2022-09-12T00:25:24.417Z,101129.97
2022-09-12T00:27:55.894Z,101127.13
2022-09-12T00:30:27.739Z,101128.66
2022-09-12T00:32:59.197Z,101128.28
2022-09-12T00:35:31.028Z,101125.25
2022-09-12T00:38:02.571Z,101127.34
2022-09-12T00:40:34.353Z,101125.38
2022-09-12T00:43:05.844Z,101133.84
2022-09-12T00:45:37.502Z,101132.47
2022-09-12T00:48:08.999Z,101140.13
2022-09-12T00:50:40.782Z,101134.66
2022-09-12T00:53:12.376Z,101126.44
2022-09-12T00:55:44.217Z,101130.88
2022-09-12T00:58:15.931Z,101129.91
2022-09-12T01:00:47.774Z,101130.78
2022-09-12T01:03:19.293Z,101132.88
2022-09-12T01:05:51.064Z,101133.94
2022-09-12T01:08:22.523Z,101126.81
2022-09-12T01:10:54.292Z,101127.25
2022-09-12T01:13:25.792Z,101124.00
2022-09-12T01:15:57.604Z,101121.75
2022-09-12T01:18:29.064Z,101117.44
2022-09-12T01:21:01.546Z,101119.97
2022-09-12T01:23:33.038Z,101119.59
2022-09-12T01:26:05.149Z,101123.56
2022-09-12T01:28:36.598Z,101126.53
2022-09-12T01:31:08.408Z,101127.81
2022-09-12T01:33:39.930Z,101129.66
2022-09-12T01:36:11.748Z,101133.38
2022-09-12T01:38:43.202Z,101126.41
2022-09-12T01:41:14.991Z,101121.72
2022-09-12T01:43:48.114Z,101119.03
2022-09-12T01:46:19.726Z,101116.59
2022-09-12T01:48:51.488Z,101113.31
2022-09-12T01:51:23.600Z,101112.09
2022-09-12T01:53:55.724Z,101117.09
2022-09-12T01:56:27.500Z,101108.25
2022-09-12T01:58:59.000Z,101110.34
2022-09-12T02:01:30.899Z,101113.00
2022-09-12T02:04:03.745Z,101112.28
2022-09-12T02:06:35.225Z,101118.28
2022-09-12T02:09:06.733Z,101117.31
2022-09-12T02:11:38.247Z,101118.59
2022-09-12T02:14:10.136Z,101120.88
2022-09-12T02:16:41.625Z,101125.84
2022-09-12T02:19:13.492Z,101118.88
2022-09-12T02:21:44.963Z,101119.06
2022-09-12T02:24:16.804Z,101114.75
2022-09-12T02:26:48.250Z,101117.66
2022-09-12T02:29:20.019Z,101115.22
2022-09-12T02:31:51.493Z,101118.09
2022-09-12T02:34:23.324Z,101111.78
2022-09-12T02:36:54.842Z,101110.59
2022-09-12T02:39:26.625Z,101110.59
2022-09-12T02:41:58.601Z,101116.97
2022-09-12T02:44:30.377Z,101115.56
2022-09-12T02:47:01.898Z,101114.75
2022-09-12T02:49:33.683Z,101124.25
2022-09-12T02:52:05.165Z,101121.56
2022-09-12T02:54:38.446Z,101123.66
2022-09-12T02:57:09.903Z,101119.13
2022-09-12T02:59:41.684Z,101119.72
2022-09-12T03:02:13.392Z,101128.31
2022-09-12T03:04:45.248Z,101125.44
2022-09-12T03:07:16.702Z,101131.81
2022-09-12T03:09:48.640Z,101125.44
2022-09-12T03:12:20.108Z,101115.78
2022-09-12T03:14:51.936Z,101124.63
2022-09-12T03:17:23.408Z,101120.91
2022-09-12T03:19:55.191Z,101118.91
2022-09-12T03:22:27.015Z,101121.13
2022-09-12T03:24:58.773Z,101116.88
2022-09-12T03:27:30.297Z,101121.19
2022-09-12T03:30:02.201Z,101123.50
2022-09-12T03:32:33.748Z,101119.63
2022-09-12T03:35:05.545Z,101125.56
2022-09-12T03:37:37.005Z,101119.63
2022-09-12T03:40:09.082Z,101126.00
2022-09-12T03:42:40.613Z,101128.25
2022-09-12T03:45:12.453Z,101130.13
2022-09-12T03:47:43.929Z,101129.75
2022-09-12T03:50:15.850Z,101125.66
2022-09-12T03:52:47.324Z,101124.84
2022-09-12T03:55:19.262Z,101127.53
2022-09-12T03:57:50.753Z,101133.91
2022-09-12T04:00:22.634Z,101132.47
2022-09-12T04:02:54.126Z,101139.69
2022-09-12T04:05:25.635Z,101133.53
2022-09-12T04:07:57.099Z,101137.44
2022-09-12T04:10:28.840Z,101144.84
2022-09-12T04:13:00.306Z,101136.47
2022-09-12T04:15:32.200Z,101140.38
2022-09-12T04:18:05.958Z,101139.78
2022-09-12T04:20:38.212Z,101136.06
2022-09-12T04:23:09.680Z,101135.25
2022-09-12T04:25:41.552Z,101135.47
2022-09-12T04:28:13.010Z,101120.88
2022-09-12T04:30:45.052Z,101139.41
2022-09-12T04:33:16.632Z,101128.50
2022-09-12T04:35:48.447Z,101136.50
2022-09-12T04:38:20.247Z,101131.16
2022-09-12T04:40:51.711Z,101134.06
2022-09-12T04:43:23.601Z,101135.88
2022-09-12T04:45:55.111Z,101131.78
2022-09-12T04:48:27.314Z,101137.72
2022-09-12T04:50:58.772Z,101133.22
2022-09-12T04:53:30.551Z,101134.06
2022-09-12T04:56:02.041Z,101133.63
2022-09-12T04:58:33.837Z,101132.38
2022-09-12T05:01:05.978Z,101140.97
2022-09-12T05:03:40.652Z,101130.31
2022-09-12T05:06:12.132Z,101128.84
2022-09-12T05:08:44.170Z,101129.81
2022-09-12T05:11:15.691Z,101137.19
2022-09-12T05:13:47.559Z,101131.41
2022-09-12T05:16:19.131Z,101136.34
2022-09-12T05:18:51.237Z,101136.72
2022-09-12T05:21:25.708Z,101144.06
2022-09-12T05:23:57.556Z,101143.22
2022-09-12T05:26:29.083Z,101141.53
2022-09-12T05:29:00.597Z,101143.69
2022-09-12T05:31:32.039Z,101145.94
2022-09-12T05:34:10.105Z,101144.97
2022-09-12T05:36:41.657Z,101145.53
2022-09-12T05:39:13.457Z,101143.84
2022-09-12T05:41:44.950Z,101156.25
2022-09-12T05:44:16.807Z,101152.63
2022-09-12T05:46:51.191Z,101148.97
2022-09-12T05:49:22.814Z,101161.38
2022-09-12T05:51:54.268Z,101155.66
2022-09-12T05:54:31.345Z,101159.22
2022-09-12T05:57:03.180Z,101162.78
2022-09-12T05:59:35.154Z,101162.38
2022-09-12T06:02:06.729Z,101163.22
2022-09-12T06:04:38.604Z,101173.16
2022-09-12T06:07:10.294Z,101167.03
2022-09-12T06:09:42.509Z,101170.88
2022-09-12T06:12:13.983Z,101171.13
2022-09-12T06:14:45.947Z,101175.34
2022-09-12T06:17:17.491Z,101179.44
2022-09-12T06:19:52.541Z,101176.66
2022-09-12T06:22:24.013Z,101184.47
2022-09-12T06:24:57.934Z,101175.84
2022-09-12T06:27:29.653Z,101175.22
2022-09-12T06:30:01.526Z,101174.41
2022-09-12T06:32:34.431Z,101179.75
2022-09-12T06:35:06.233Z,101182.63
2022-09-12T06:37:37.705Z,101184.34
2022-09-12T06:40:10.178Z,101186.53
2022-09-12T06:42:41.769Z,101187.06
2022-09-12T06:45:16.447Z,101185.50
2022-09-12T06:47:47.919Z,101184.16
2022-09-12T06:50:19.414Z,101181.56
2022-09-12T06:52:51.110Z,101186.94
2022-09-12T06:55:27.763Z,101190.53
2022-09-12T06:57:59.408Z,101182.66
2022-09-12T07:00:31.947Z,101180.41
2022-09-12T07:03:03.402Z,101172.91
2022-09-12T07:05:35.161Z,101165.25
2022-09-12T07:08:06.621Z,101167.91
2022-09-12T07:10:38.387Z,101167.28
2022-09-12T07:13:09.876Z,101169.00
2022-09-12T07:15:41.384Z,101164.13
2022-09-12T07:18:12.915Z,101165.63
2022-09-12T07:20:44.713Z,101170.56
2022-09-12T07:23:16.170Z,101173.16
2022-09-12T07:25:47.955Z,101167.50
2022-09-12T07:28:19.415Z,101180.16
2022-09-12T07:30:51.386Z,101184.16
2022-09-12T07:33:23.145Z,101176.50
2022-09-12T07:35:55.168Z,101173.94
2022-09-12T07:38:26.697Z,101175.47
2022-09-12T07:40:59.103Z,101175.66
2022-09-12T07:43:30.623Z,101172.50
2022-09-12T07:46:02.453Z,101178.22
2022-09-12T07:48:33.969Z,101180.69
2022-09-12T07:51:05.481Z,101169.41
2022-09-12T07:53:37.283Z,101169.16
2022-09-12T07:56:08.745Z,101168.16
2022-09-12T07:58:40.837Z,101172.53
2022-09-12T08:01:13.142Z,101177.16
2022-09-12T08:03:45.648Z,101177.41
2022-09-12T08:06:17.277Z,101172.81
2022-09-12T08:08:49.243Z,101170.91
2022-09-12T08:11:20.771Z,101173.38
2022-09-12T08:13:55.258Z,101185.25
2022-09-12T08:16:27.285Z,101177.94
2022-09-12T08:18:59.163Z,101181.66
2022-09-12T08:21:30.632Z,101172.41
2022-09-12T08:24:02.481Z,101176.34
2022-09-12T08:26:33.971Z,101180.00
2022-09-12T08:29:06.071Z,101176.22
2022-09-12T08:31:37.622Z,101174.31
2022-09-12T08:34:09.729Z,101178.69
2022-09-12T08:36:41.257Z,101178.16
2022-09-12T08:39:13.029Z,101179.56
2022-09-12T08:41:44.583Z,101176.78
2022-09-12T08:44:16.430Z,101170.13
2022-09-12T08:46:48.109Z,101175.25
2022-09-12T08:49:20.065Z,101174.38
2022-09-12T08:51:51.955Z,101173.19
2022-09-12T08:54:24.505Z,101179.50
2022-09-12T08:56:56.440Z,101181.53
2022-09-12T08:59:28.376Z,101175.59
2022-09-12T09:01:59.932Z,101169.81
2022-09-12T09:04:31.806Z,101166.13
2022-09-12T09:07:03.968Z,101158.94
2022-09-12T09:09:36.949Z,101163.06
2022-09-12T09:12:08.437Z,101161.06
2022-09-12T09:14:49.186Z,101169.34
2022-09-12T09:17:20.734Z,101159.75
2022-09-12T09:19:52.698Z,101163.97
2022-09-12T09:22:24.168Z,101159.94
2022-09-12T09:24:56.138Z,101156.16
2022-09-12T09:27:40.405Z,101155.50
2022-09-12T09:30:13.197Z,101144.16
2022-09-12T09:32:44.669Z,101150.53
2022-09-12T09:35:16.485Z,101145.56
2022-09-12T09:37:47.939Z,101148.75
2022-09-12T09:40:19.656Z,101154.50
2022-09-12T09:42:51.148Z,101153.50
2022-09-12T09:45:24.429Z,101149.88
2022-09-12T09:47:55.937Z,101151.88
2022-09-12T09:50:27.788Z,101152.19
2022-09-12T09:52:59.357Z,101155.69
2022-09-12T09:55:31.269Z,101145.84
2022-09-12T09:58:04.041Z,101147.75
2022-09-12T10:00:35.983Z,101141.16
2022-09-12T10:03:10.245Z,101144.34
2022-09-12T10:05:45.455Z,101148.06
2022-09-12T10:08:16.966Z,101137.69
2022-09-12T10:10:48.742Z,101138.00
2022-09-12T10:13:20.214Z,101139.50
2022-09-12T10:15:52.052Z,101133.25
2022-09-12T10:18:23.561Z,101133.72
2022-09-12T10:20:55.511Z,101128.84
2022-09-12T10:23:28.410Z,101133.34
2022-09-12T10:26:01.068Z,101130.13
2022-09-12T10:28:32.525Z,101133.88
2022-09-12T10:31:04.436Z,101136.97
2022-09-12T10:33:36.029Z,101132.41
2022-09-12T10:36:07.910Z,101121.34
2022-09-12T10:38:39.364Z,101123.63
2022-09-12T10:41:11.206Z,101123.19
2022-09-12T10:43:42.696Z,101116.06
2022-09-12T10:46:14.704Z,101116.81
2022-09-12T10:48:46.215Z,101122.06
2022-09-12T10:51:18.126Z,101110.63
2022-09-12T10:53:49.640Z,101109.13
2022-09-12T10:56:21.441Z,101109.66
2022-09-12T10:58:53.688Z,101104.78
2022-09-12T11:01:25.589Z,101106.38
2022-09-12T11:03:57.100Z,101102.38
2022-09-12T11:06:28.942Z,101102.56
2022-09-12T11:09:00.403Z,101109.31
2022-09-12T11:11:32.497Z,101106.38
2022-09-12T11:14:03.987Z,101109.28
2022-09-12T11:16:36.777Z,101109.03
2022-09-12T11:19:08.587Z,101107.38
2022-09-12T11:21:40.065Z,101100.84
2022-09-12T11:24:11.849Z,101100.34
2022-09-12T11:26:43.364Z,101105.84
2022-09-12T11:29:16.144Z,101100.75
2022-09-12T11:31:47.743Z,101096.91
2022-09-12T11:34:19.480Z,101099.50
2022-09-12T11:36:50.981Z,101101.41
2022-09-12T11:39:22.785Z,101094.88
2022-09-12T11:41:54.244Z,101096.88
2022-09-12T11:44:26.217Z,101089.28
2022-09-12T11:46:57.684Z,101099.34
2022-09-12T11:49:33.550Z,101088.53
2022-09-12T11:52:06.824Z,101089.47
2022-09-12T11:54:38.623Z,101085.69
2022-09-12T11:57:10.090Z,101079.50
2022-09-12T11:59:42.035Z,101076.25
2022-09-12T12:02:13.553Z,101075.28
2022-09-12T12:04:46.121Z,101072.16
2022-09-12T12:07:17.629Z,101072.47
2022-09-12T12:09:49.557Z,101071.72
2022-09-12T12:12:21.117Z,101072.09
2022-09-12T12:14:52.995Z,101066.78
2022-09-12T12:17:24.635Z,101062.91
2022-09-12T12:19:56.459Z,101054.97
2022-09-12T12:22:27.962Z,101055.66
2022-09-12T12:24:59.946Z,101051.47
2022-09-12T12:27:31.457Z,101048.47
2022-09-12T12:30:03.477Z,101051.03
2022-09-12T12:32:35.066Z,101053.00
2022-09-12T12:35:06.860Z,101052.28
2022-09-12T12:37:40.301Z,101051.53
2022-09-12T12:40:12.222Z,101050.56
2022-09-12T12:42:44.427Z,101054.72
2022-09-12T12:45:16.349Z,101060.56
2022-09-12T12:47:47.852Z,101052.06
2022-09-12T12:50:19.941Z,101059.47
2022-09-12T12:52:51.434Z,101055.34
2022-09-12T12:55:23.332Z,101049.63
2022-09-12T12:57:54.833Z,101048.81
2022-09-12T13:00:30.471Z,101048.81
2022-09-12T13:03:02.365Z,101049.97
2022-09-12T13:05:33.912Z,101052.72
2022-09-12T13:08:06.383Z,101052.53
2022-09-12T13:10:37.950Z,101053.31
2022-09-12T13:13:09.929Z,101047.94
2022-09-12T13:15:41.491Z,101036.91
2022-09-12T13:18:13.689Z,101036.78
2022-09-12T13:20:45.232Z,101037.06
2022-09-12T13:23:17.046Z,101029.72
2022-09-12T13:25:48.737Z,101036.00
2022-09-12T13:28:20.657Z,101027.75
2022-09-12T13:30:52.234Z,101019.88
2022-09-12T13:33:24.212Z,101024.09
2022-09-12T13:35:55.759Z,101025.47
2022-09-12T13:38:27.886Z,101009.88
2022-09-12T13:40:59.382Z,101016.84
2022-09-12T13:43:31.282Z,101020.41
2022-09-12T13:46:02.821Z,101005.56
2022-09-12T13:48:34.707Z,101004.03
2022-09-12T13:51:06.235Z,100995.19
2022-09-12T13:53:38.254Z,100993.03
2022-09-12T13:56:09.741Z,100994.38
2022-09-12T13:58:41.634Z,100997.94
2022-09-12T14:01:13.434Z,101000.81
2022-09-12T14:04:04.168Z,101004.22
2022-09-12T14:06:35.690Z,100999.00
2022-09-12T14:09:07.513Z,100997.81
2022-09-12T14:11:40.029Z,101001.22
2022-09-12T14:14:12.295Z,100996.50
2022-09-12T14:16:43.842Z,100989.88
2022-09-12T14:19:17.644Z,100992.44
2022-09-12T14:21:50.834Z,100989.63
2022-09-12T14:24:25.598Z,100990.09
2022-09-12T14:26:57.060Z,100980.72
2022-09-12T14:29:28.851Z,100992.81
2022-09-12T14:32:00.324Z,100982.94
2022-09-12T14:34:32.096Z,100984.13
2022-09-12T14:37:03.582Z,100979.84
2022-09-12T14:39:35.365Z,100982.28
2022-09-12T14:42:06.821Z,100983.94
2022-09-12T14:44:38.636Z,100981.72
2022-09-12T14:47:10.098Z,100975.50
2022-09-12T14:49:41.868Z,100978.00
2022-09-12T14:52:13.348Z,100971.06
2022-09-12T14:54:45.146Z,100970.75
2022-09-12T14:57:16.612Z,100969.44
2022-09-12T14:59:48.389Z,100970.53
2022-09-12T15:02:20.151Z,100964.09
2022-09-12T15:04:52.153Z,100959.25
2022-09-12T15:07:24.186Z,100966.50
2022-09-12T15:09:56.006Z,100965.38
2022-09-12T15:12:27.500Z,100958.25
2022-09-12T15:14:59.479Z,100961.31
2022-09-12T15:17:30.946Z,100957.13
2022-09-12T15:20:02.966Z,100959.03
2022-09-12T15:22:34.535Z,100965.06
2022-09-12T15:25:06.304Z,100960.72
2022-09-12T15:27:40.774Z,100960.19
2022-09-12T15:30:13.557Z,100965.78
2022-09-12T15:32:45.013Z,100955.63
2022-09-12T15:35:16.827Z,100958.81
2022-09-12T15:37:48.828Z,100957.59
2022-09-12T15:40:20.421Z,100950.91
2022-09-12T15:42:52.785Z,100948.16
2022-09-12T15:45:24.282Z,100950.38
2022-09-12T15:47:55.804Z,100944.34
2022-09-12T15:50:28.063Z,100935.22
2022-09-12T15:52:59.895Z,100939.00
2022-09-12T15:55:32.181Z,100947.56
2022-09-12T15:58:07.214Z,100946.63
2022-09-12T16:00:39.037Z,100949.78
2022-09-12T16:03:13.651Z,100945.41
2022-09-12T16:05:48.906Z,100944.72
2022-09-12T16:08:20.713Z,100933.56
2022-09-12T16:10:52.240Z,100936.66
2022-09-12T16:13:24.044Z,100936.38
2022-09-12T16:15:56.646Z,100931.91
2022-09-12T16:18:28.568Z,100936.09
2022-09-12T16:21:00.033Z,100932.63
2022-09-12T16:23:31.812Z,100932.25
2022-09-12T16:26:03.269Z,100930.59
2022-09-12T16:28:35.359Z,100928.44
2022-09-12T16:31:06.928Z,100928.53
2022-09-12T16:33:38.475Z,100923.97
2022-09-12T16:36:09.952Z,100928.44
2022-09-12T16:38:41.857Z,100924.47
2022-09-12T16:41:13.380Z,100910.09
2022-09-12T16:43:45.760Z,100912.81
2022-09-12T16:46:17.332Z,100912.81
2022-09-12T16:48:52.896Z,100906.63
2022-09-12T16:51:24.481Z,100908.81
2022-09-12T16:53:56.341Z,100897.72
2022-09-12T16:56:27.883Z,100910.00
2022-09-12T16:58:59.791Z,100897.00
2022-09-12T17:01:31.418Z,100898.13
2022-09-12T17:04:03.245Z,100897.63
2022-09-12T17:06:35.049Z,100897.13
2022-09-12T17:09:06.982Z,100891.75
2022-09-12T17:11:38.495Z,100885.28
2022-09-12T17:14:11.007Z,100886.38
2022-09-12T17:16:42.756Z,100886.94
2022-09-12T17:19:14.796Z,100889.41
2022-09-12T17:21:47.590Z,100891.56
2022-09-12T17:24:19.495Z,100882.13
2022-09-12T17:26:51.065Z,100880.22
2022-09-12T17:29:23.029Z,100885.66
2022-09-12T17:31:55.681Z,100875.13
2022-09-12T17:34:27.282Z,100879.47
2022-09-12T17:36:58.916Z,100878.38
2022-09-12T17:39:30.770Z,100882.97
2022-09-12T17:42:02.332Z,100883.25
2022-09-12T17:44:35.785Z,100886.19
2022-09-12T17:47:07.327Z,100882.63
2022-09-12T17:49:40.964Z,100880.75
2022-09-12T17:52:12.719Z,100882.91
2022-09-12T17:54:45.044Z,100884.78
2022-09-12T17:57:16.820Z,100890.16
2022-09-12T17:59:48.662Z,100892.28
2022-09-12T18:02:20.178Z,100893.59
2022-09-12T18:04:52.049Z,100897.63
2022-09-12T18:07:23.526Z,100905.97
2022-09-12T18:09:55.374Z,100901.91
2022-09-12T18:12:26.868Z,100897.53
2022-09-12T18:14:58.760Z,100893.19
2022-09-12T18:17:30.278Z,100896.97
2022-09-12T18:20:02.203Z,100896.16
2022-09-12T18:22:33.717Z,100893.66
2022-09-12T18:25:05.571Z,100892.03
2022-09-12T18:27:37.068Z,100886.88
2022-09-12T18:30:21.141Z,100887.13
2022-09-12T18:32:53.275Z,100882.50
2022-09-12T18:35:25.105Z,100886.50
2022-09-12T18:37:56.659Z,100880.00
2022-09-12T18:40:28.650Z,100883.25
2022-09-12T18:43:00.632Z,100874.09
2022-09-12T18:45:32.137Z,100881.63
2022-09-12T18:48:06.357Z,100881.59
2022-09-12T18:50:37.899Z,100894.78
2022-09-12T18:53:09.729Z,100891.50
2022-09-12T18:55:42.334Z,100887.97
2022-09-12T18:58:14.236Z,100881.97
2022-09-12T19:00:48.291Z,100881.34
2022-09-12T19:03:20.216Z,100875.91
2022-09-12T19:05:51.724Z,100863.97
2022-09-12T19:08:23.937Z,100862.59
2022-09-12T19:10:55.450Z,100861.97
2022-09-12T19:13:27.223Z,100857.66
2022-09-12T19:15:58.768Z,100857.59
2022-09-12T19:18:31.773Z,100856.50
2022-09-12T19:21:03.276Z,100850.00
2022-09-12T19:23:35.637Z,100857.72
2022-09-12T19:26:07.213Z,100859.75
2022-09-12T19:28:39.203Z,100858.63
2022-09-12T19:31:10.942Z,100857.22
2022-09-12T19:33:42.706Z,100855.28
2022-09-12T19:36:34.006Z,100850.41
2022-09-12T19:39:06.033Z,100847.41
2022-09-12T19:41:37.869Z,100852.50
2022-09-12T19:44:09.381Z,100844.69
2022-09-12T19:46:40.972Z,100845.66
2022-09-12T19:49:12.905Z,100841.09
2022-09-12T19:51:44.954Z,100843.22
2022-09-12T19:54:16.517Z,100844.78
2022-09-12T19:56:48.373Z,100843.69
2022-09-12T19:59:19.942Z,100843.38
2022-09-12T20:01:51.878Z,100845.63
2022-09-12T20:04:23.456Z,100845.56
2022-09-12T20:06:55.272Z,100840.66
2022-09-12T20:09:26.788Z,100839.78
2022-09-12T20:11:58.831Z,100835.47
2022-09-12T20:14:30.336Z,100835.72
2022-09-12T20:17:02.358Z,100830.34
2022-09-12T20:19:33.904Z,100827.53
2022-09-12T20:22:05.913Z,100825.09
2022-09-12T20:24:37.713Z,100821.34
2022-09-12T20:27:09.541Z,100830.72
2022-09-12T20:29:41.049Z,100822.09
2022-09-12T20:32:12.559Z,100820.22
2022-09-12T20:34:44.073Z,100820.16
2022-09-12T20:37:15.751Z,100813.16
2022-09-12T20:39:50.734Z,100816.03
2022-09-12T20:42:22.708Z,100823.50
2022-09-12T20:44:54.267Z,100810.00
2022-09-12T20:47:26.180Z,100818.53
2022-09-12T20:49:57.681Z,100811.56
2022-09-12T20:52:29.714Z,100820.91
2022-09-12T20:55:01.465Z,100813.09
2022-09-12T20:57:33.255Z,100814.41
2022-09-12T21:00:06.725Z,100817.22
2022-09-12T21:02:38.360Z,100803.53
2022-09-12T21:05:09.931Z,100803.47
2022-09-12T21:07:41.788Z,100804.78
2022-09-12T21:10:13.697Z,100809.34
2022-09-12T21:12:45.792Z,100809.56
2022-09-12T21:15:17.287Z,100806.28
2022-09-12T21:17:49.269Z,100801.66
2022-09-12T21:20:20.820Z,100801.34
2022-09-12T21:22:52.391Z,100799.97
2022-09-12T21:25:24.276Z,100800.22
2022-09-12T21:27:55.772Z,100799.09
2022-09-12T21:30:28.026Z,100793.16
2022-09-12T21:32:59.507Z,100797.13
2022-09-12T21:35:31.484Z,100793.88
2022-09-12T21:38:02.992Z,100789.81
2022-09-12T21:40:34.873Z,100789.00
2022-09-12T21:43:10.452Z,100797.06
2022-09-12T21:45:44.403Z,100795.44
2022-09-12T21:48:15.924Z,100793.25
2022-09-12T21:50:47.780Z,100784.63
2022-09-12T21:53:19.370Z,100785.44
2022-09-12T21:55:50.922Z,100784.88
2022-09-12T21:58:22.443Z,100779.97
2022-09-12T22:00:54.331Z,100781.03
2022-09-12T22:03:26.193Z,100775.91
2022-09-12T22:05:57.961Z,100767.59
2022-09-12T22:08:29.556Z,100773.47
2022-09-12T22:11:02.525Z,100759.47
2022-09-12T22:13:34.045Z,100763.78
2022-09-12T22:16:05.908Z,100759.25
2022-09-12T22:18:38.007Z,100763.44
2022-09-12T22:21:09.831Z,100748.88
2022-09-12T22:24:10.721Z,100748.31
2022-09-12T22:26:42.768Z,100746.38
2022-09-12T22:29:14.602Z,100736.13
2022-09-12T22:31:46.473Z,100730.78
2022-09-12T22:34:17.994Z,100731.59
2022-09-12T22:36:49.863Z,100729.38
2022-09-12T22:39:21.483Z,100724.84
2022-09-12T22:41:53.320Z,100741.41
2022-09-12T22:44:24.801Z,100728.75
2022-09-12T22:46:57.029Z,100716.97
2022-09-12T22:49:28.690Z,100708.09
2022-09-12T22:52:00.563Z,100704.28
2022-09-12T22:54:32.068Z,100702.41
2022-09-12T22:57:03.887Z,100699.38
2022-09-12T22:59:35.381Z,100688.81
2022-09-12T23:02:07.372Z,100685.34
2022-09-12T23:04:38.962Z,100683.13
2022-09-12T23:07:11.095Z,100676.72
2022-09-12T23:09:42.692Z,100686.31
2022-09-12T23:12:14.549Z,100691.34
2022-09-12T23:14:46.680Z,100682.72
2022-09-12T23:17:18.500Z,100687.19
2022-09-12T23:19:49.944Z,100682.56
2022-09-12T23:22:21.695Z,100683.88
2022-09-12T23:24:53.147Z,100679.00
2022-09-12T23:27:24.619Z,100687.25
2022-09-12T23:29:56.513Z,100680.50
2022-09-12T23:32:28.311Z,100679.44
2022-09-12T23:35:00.097Z,100679.44
2022-09-12T23:37:31.554Z,100672.72
2022-09-12T23:40:03.461Z,100676.34
2022-09-12T23:42:34.973Z,100673.44
2022-09-12T23:45:06.746Z,100673.44
2022-09-12T23:47:38.238Z,100667.50
2022-09-12T23:50:09.716Z,100669.38
2022-09-12T23:52:41.304Z,100672.28
2022-09-12T23:55:13.069Z,100661.56
2022-09-12T23:57:44.532Z,100659.72
